createdAt,value
2018-05-18T00:02:13.014Z,60.43
2018-05-18T00:04:41.439Z,52.30
2018-05-18T00:07:09.076Z,50.00
2018-05-18T00:09:36.739Z,54.30
2018-05-18T00:12:04.430Z,56.60
2018-05-18T00:14:32.067Z,52.30
2018-05-18T00:16:59.750Z,60.50
2018-05-18T00:19:27.415Z,53.83
2018-05-18T00:21:55.069Z,54.77
2018-05-18T00:24:22.738Z,55.50
2018-05-18T00:26:50.423Z,55.13
2018-05-18T00:29:18.082Z,54.87
2018-05-18T00:31:45.746Z,50.60
2018-05-18T00:34:14.180Z,54.57
2018-05-18T00:36:41.816Z,50.67
2018-05-18T00:39:09.479Z,51.30
2018-05-18T00:41:37.907Z,48.93
2018-05-18T00:44:05.555Z,46.03
2018-05-18T00:46:33.223Z,50.40
2018-05-18T00:49:00.879Z,51.90
2018-05-18T00:51:28.536Z,50.50
2018-05-18T00:53:56.226Z,48.70
2018-05-18T00:56:24.659Z,49.30
2018-05-18T00:58:52.304Z,47.03
2018-05-18T01:01:20.016Z,46.13
2018-05-18T01:03:47.680Z,46.40
2018-05-18T01:06:15.314Z,49.30
2018-05-18T01:08:42.967Z,45.70
2018-05-18T01:11:10.642Z,43.50
2018-05-18T01:13:38.340Z,42.23
2018-05-18T01:16:06.155Z,44.33
2018-05-18T01:18:33.831Z,42.70
2018-05-18T01:21:01.467Z,43.40
2018-05-18T01:23:29.145Z,42.77
2018-05-18T01:25:56.807Z,39.90
2018-05-18T01:28:24.451Z,42.80
2018-05-18T01:30:52.137Z,40.63
2018-05-18T01:33:19.803Z,42.03
2018-05-18T01:35:47.435Z,44.27
2018-05-18T01:38:15.159Z,40.03
2018-05-18T01:40:42.844Z,41.60
2018-05-18T01:43:10.484Z,42.90
2018-05-18T01:45:38.142Z,43.47
2018-05-18T01:48:06.389Z,40.63
2018-05-18T01:50:34.054Z,38.30
2018-05-18T01:53:02.502Z,45.80
2018-05-18T01:55:30.183Z,45.40
2018-05-18T01:57:58.585Z,46.27
2018-05-18T02:00:26.262Z,42.00
2018-05-18T02:02:54.020Z,46.83
2018-05-18T02:05:21.774Z,48.03
2018-05-18T02:07:49.471Z,46.37
2018-05-18T02:10:17.133Z,45.73
2018-05-18T02:12:44.841Z,46.03
2018-05-18T02:15:12.469Z,44.97
2018-05-18T02:17:40.153Z,44.50
2018-05-18T02:20:08.555Z,49.87
2018-05-18T02:22:36.230Z,48.70
2018-05-18T02:25:03.953Z,44.77
2018-05-18T02:27:31.604Z,46.50
2018-05-18T02:30:00.039Z,53.30
2018-05-18T02:32:27.712Z,48.47
2018-05-18T02:34:55.359Z,53.63
2018-05-18T02:37:23.031Z,49.50
2018-05-18T02:39:50.740Z,56.00
2018-05-18T02:42:19.196Z,49.43
2018-05-18T02:44:46.883Z,52.57
2018-05-18T02:47:15.340Z,51.80
2018-05-18T02:49:43.759Z,52.47
2018-05-18T02:52:11.431Z,54.00
2018-05-18T02:54:39.861Z,52.07
2018-05-18T02:57:08.282Z,48.30
2018-05-18T02:59:35.950Z,50.03
2018-05-18T03:02:03.659Z,49.00
2018-05-18T03:04:31.295Z,52.23
2018-05-18T03:06:58.958Z,50.13
2018-05-18T03:09:26.654Z,50.43
2018-05-18T03:11:55.037Z,48.93
2018-05-18T03:14:22.713Z,53.80
2018-05-18T03:16:50.391Z,50.30
2018-05-18T03:19:18.809Z,53.17
2018-05-18T03:21:46.476Z,49.87
2018-05-18T03:24:14.150Z,50.53
2018-05-18T03:26:42.560Z,53.30
2018-05-18T03:29:10.226Z,55.10
2018-05-18T03:31:37.890Z,53.97
2018-05-18T03:34:05.545Z,50.63
2018-05-18T03:36:33.222Z,52.70
2018-05-18T03:39:00.895Z,55.53
2018-05-18T03:41:28.532Z,52.00
2018-05-18T03:43:56.233Z,50.43
2018-05-18T03:46:23.910Z,47.20
2018-05-18T03:48:52.329Z,49.53
2018-05-18T03:51:19.991Z,49.27
2018-05-18T03:53:47.678Z,51.20
2018-05-18T03:56:15.318Z,47.50
2018-05-18T03:58:42.978Z,45.53
2018-05-18T04:01:17.274Z,49.00
2018-05-18T04:03:56.789Z,49.27
2018-05-18T04:06:36.969Z,47.00
2018-05-18T04:09:04.714Z,51.93
2018-05-18T04:11:32.425Z,49.73
2018-05-18T04:14:00.083Z,50.00
2018-05-18T04:16:27.781Z,49.23
2018-05-18T04:18:56.228Z,46.43
2018-05-18T04:21:23.870Z,46.80
2018-05-18T04:23:51.558Z,46.93
2018-05-18T04:26:19.234Z,45.90
2018-05-18T04:28:47.678Z,50.17
2018-05-18T04:31:15.344Z,48.83
2018-05-18T04:33:43.016Z,51.20
2018-05-18T04:36:10.669Z,50.83
2018-05-18T04:38:38.334Z,56.13
2018-05-18T04:41:06.012Z,46.10
2018-05-18T04:43:33.669Z,48.80
2018-05-18T04:46:01.334Z,47.80
2018-05-18T04:48:28.992Z,48.80
2018-05-18T04:50:56.724Z,47.07
2018-05-18T04:53:24.362Z,49.40
2018-05-18T04:55:52.029Z,51.00
2018-05-18T04:58:19.667Z,52.87
2018-05-18T05:00:47.347Z,45.07
2018-05-18T05:03:15.238Z,46.57
2018-05-18T05:05:44.016Z,47.77
2018-05-18T05:08:12.100Z,48.90
2018-05-18T05:10:41.020Z,44.43
2018-05-18T05:13:09.232Z,47.33
2018-05-18T05:15:37.040Z,47.13
2018-05-18T05:18:04.719Z,48.13
2018-05-18T05:20:33.120Z,47.67
2018-05-18T05:23:00.783Z,45.83
2018-05-18T05:25:28.459Z,46.33
2018-05-18T05:27:56.111Z,42.07
2018-05-18T05:30:23.789Z,43.07
2018-05-18T05:32:51.472Z,45.37
2018-05-18T05:35:19.105Z,42.90
2018-05-18T05:37:46.781Z,42.10
2018-05-18T05:40:14.450Z,44.90
2018-05-18T05:42:42.104Z,44.30
2018-05-18T05:45:09.850Z,42.70
2018-05-18T05:47:37.517Z,43.30
2018-05-18T05:50:05.179Z,41.90
2018-05-18T05:52:32.848Z,40.33
2018-05-18T05:55:00.519Z,41.50
2018-05-18T05:57:28.148Z,42.97
2018-05-18T05:59:55.815Z,41.70
2018-05-18T06:02:23.480Z,40.20
2018-05-18T06:04:51.114Z,40.40
2018-05-18T06:07:18.780Z,41.17
2018-05-18T06:09:46.556Z,36.73
2018-05-18T06:12:14.440Z,40.27
2018-05-18T06:14:42.273Z,40.43
2018-05-18T06:17:09.960Z,36.97
2018-05-18T06:19:37.617Z,38.27
2018-05-18T06:22:05.301Z,39.60
2018-05-18T06:24:32.981Z,38.37
2018-05-18T06:27:01.382Z,35.73
2018-05-18T06:29:29.053Z,34.40
2018-05-18T06:31:56.727Z,36.40
2018-05-18T06:34:24.363Z,34.67
2018-05-18T06:36:52.059Z,38.70
2018-05-18T06:39:19.735Z,34.80
2018-05-18T06:41:47.608Z,37.10
2018-05-18T06:44:16.124Z,33.40
2018-05-18T06:46:43.817Z,34.10
2018-05-18T06:49:11.459Z,31.50
2018-05-18T06:51:39.137Z,31.37
2018-05-18T06:54:06.826Z,33.03
2018-05-18T06:56:34.492Z,29.43
2018-05-18T06:59:02.150Z,29.70
2018-05-18T07:01:29.822Z,32.70
2018-05-18T07:03:58.312Z,32.60
2018-05-18T07:06:25.939Z,31.30
2018-05-18T07:08:53.655Z,30.77
2018-05-18T07:11:21.306Z,27.83
2018-05-18T07:13:48.962Z,33.47
2018-05-18T07:16:16.618Z,35.27
2018-05-18T07:18:44.254Z,31.97
2018-05-18T07:21:12.682Z,32.50
2018-05-18T07:23:40.342Z,32.30
2018-05-18T07:26:07.978Z,33.20
2018-05-18T07:28:35.644Z,34.10
2018-05-18T07:31:03.311Z,35.80
2018-05-18T07:33:30.979Z,31.40
2018-05-18T07:35:58.669Z,30.30
2018-05-18T07:38:26.424Z,30.90
2018-05-18T07:40:54.145Z,30.33
2018-05-18T07:43:21.810Z,31.00
2018-05-18T07:45:49.489Z,29.60
2018-05-18T07:48:17.121Z,27.10
2018-05-18T07:50:44.783Z,29.67
2018-05-18T07:53:12.448Z,26.00
2018-05-18T07:55:40.091Z,26.47
2018-05-18T07:58:08.522Z,23.20
2018-05-18T08:00:36.192Z,22.10
2018-05-18T08:03:03.894Z,23.50
2018-05-18T08:05:31.555Z,25.50
2018-05-18T08:07:59.985Z,21.77
2018-05-18T08:10:27.621Z,23.30
2018-05-18T08:12:55.279Z,19.30
2018-05-18T08:15:22.948Z,22.47
2018-05-18T08:17:50.678Z,23.10
2018-05-18T08:20:19.177Z,21.77
2018-05-18T08:22:46.851Z,17.70
2018-05-18T08:25:14.505Z,17.80
2018-05-18T08:27:42.200Z,19.50
2018-05-18T08:30:09.872Z,20.07
2018-05-18T08:32:37.506Z,18.37
2018-05-18T08:35:05.215Z,19.20
2018-05-18T08:37:33.674Z,19.27
2018-05-18T08:40:01.323Z,21.20
2018-05-18T08:42:29.002Z,22.10
2018-05-18T08:44:56.689Z,22.37
2018-05-18T08:47:24.315Z,20.53
2018-05-18T08:49:52.067Z,21.17
2018-05-18T08:52:19.719Z,21.50
2018-05-18T08:54:47.351Z,20.33
2018-05-18T08:57:15.046Z,17.53
2018-05-18T08:59:42.704Z,19.63
2018-05-18T09:02:10.338Z,18.63
2018-05-18T09:04:38.008Z,17.93
2018-05-18T09:07:05.681Z,17.60
2018-05-18T09:09:33.314Z,18.47
2018-05-18T09:12:00.979Z,17.90
2018-05-18T09:14:28.644Z,16.10
2018-05-18T09:16:56.283Z,15.60
2018-05-18T09:19:24.728Z,17.20
2018-05-18T09:21:53.151Z,17.57
2018-05-18T09:24:20.775Z,18.80
2018-05-18T09:26:49.206Z,18.03
2018-05-18T09:29:16.867Z,18.23
2018-05-18T09:31:44.515Z,16.27
2018-05-18T09:34:12.271Z,18.40
2018-05-18T09:36:39.902Z,18.67
2018-05-18T09:39:07.540Z,18.20
2018-05-18T09:41:35.217Z,16.80
2018-05-18T09:44:02.903Z,17.27
2018-05-18T09:46:30.934Z,16.43
2018-05-18T09:48:58.627Z,16.77
2018-05-18T09:51:26.318Z,17.37
2018-05-18T09:53:54.017Z,16.20
2018-05-18T09:56:22.501Z,18.00
2018-05-18T09:58:50.960Z,18.90
2018-05-18T10:01:18.623Z,19.47
2018-05-18T10:03:46.308Z,17.67
2018-05-18T10:06:14.767Z,16.80
2018-05-18T10:08:42.437Z,15.27
2018-05-18T10:11:10.098Z,14.40
2018-05-18T10:13:37.787Z,12.47
2018-05-18T10:16:05.448Z,12.20
2018-05-18T10:18:33.186Z,12.90
2018-05-18T10:21:00.820Z,13.80
2018-05-18T10:23:28.525Z,14.83
2018-05-18T10:25:56.323Z,13.33
2018-05-18T10:28:26.976Z,13.40
2018-05-18T10:30:54.616Z,13.97
2018-05-18T10:33:22.303Z,14.67
2018-05-18T10:35:49.988Z,16.07
2018-05-18T10:38:18.405Z,14.30
2018-05-18T10:40:46.079Z,15.43
2018-05-18T10:43:13.746Z,15.87
2018-05-18T10:45:41.378Z,16.23
2018-05-18T10:48:09.054Z,15.00
2018-05-18T10:50:36.731Z,15.87
2018-05-18T10:53:04.467Z,15.57
2018-05-18T10:55:32.098Z,15.03
2018-05-18T10:57:59.759Z,13.53
2018-05-18T11:00:27.419Z,13.97
2018-05-18T11:02:55.097Z,15.60
2018-05-18T11:05:22.794Z,14.03
2018-05-18T11:07:50.425Z,14.27
2018-05-18T11:10:18.880Z,14.30
2018-05-18T11:12:46.540Z,13.10
2018-05-18T11:15:14.184Z,13.50
2018-05-18T11:17:41.835Z,12.30
2018-05-18T11:20:10.389Z,13.97
2018-05-18T11:22:38.044Z,14.50
2018-05-18T11:25:05.741Z,13.60
2018-05-18T11:27:33.479Z,12.77
2018-05-18T11:30:01.128Z,13.47
2018-05-18T11:32:28.808Z,14.33
2018-05-18T11:34:56.470Z,13.13
2018-05-18T11:37:24.135Z,12.20
2018-05-18T11:39:51.809Z,13.10
2018-05-18T11:42:20.256Z,11.50
2018-05-18T11:44:47.939Z,12.70
2018-05-18T11:47:17.371Z,13.13
2018-05-18T11:49:45.059Z,11.80
2018-05-18T11:52:12.755Z,13.93
2018-05-18T11:54:40.460Z,12.57
2018-05-18T11:57:08.126Z,12.70
2018-05-18T11:59:35.758Z,11.20
2018-05-18T12:02:04.198Z,12.67
2018-05-18T12:04:31.884Z,12.10
2018-05-18T12:06:59.543Z,10.83
2018-05-18T12:09:27.215Z,10.47
2018-05-18T12:11:55.648Z,11.73
2018-05-18T12:14:23.588Z,11.63
2018-05-18T12:16:51.266Z,12.63
2018-05-18T12:19:18.967Z,10.47
2018-05-18T12:21:46.636Z,10.73
2018-05-18T12:24:15.083Z,11.30
2018-05-18T12:26:42.792Z,10.07
2018-05-18T12:29:11.191Z,10.77
2018-05-18T12:31:38.928Z,11.03
2018-05-18T12:34:06.630Z,10.70
2018-05-18T12:36:35.082Z,10.93
2018-05-18T12:39:02.795Z,10.60
2018-05-18T12:41:30.468Z,10.37
2018-05-18T12:43:58.107Z,10.53
2018-05-18T12:46:25.787Z,10.27
2018-05-18T12:48:53.478Z,9.80
2018-05-18T12:51:21.122Z,10.57
2018-05-18T12:53:49.588Z,11.87
2018-05-18T12:56:18.042Z,9.70
2018-05-18T12:58:45.713Z,11.77
2018-05-18T13:01:13.437Z,10.90
2018-05-18T13:03:41.111Z,10.77
2018-05-18T13:06:08.759Z,10.43
2018-05-18T13:08:36.433Z,10.00
2018-05-18T13:11:04.112Z,9.53
2018-05-18T13:13:31.753Z,9.90
2018-05-18T13:15:59.457Z,11.97
2018-05-18T13:18:27.159Z,10.87
2018-05-18T13:20:54.800Z,10.93
2018-05-18T13:23:22.469Z,10.70
2018-05-18T13:25:50.203Z,10.07
2018-05-18T13:28:18.615Z,10.77
2018-05-18T13:30:46.295Z,10.70
2018-05-18T13:33:13.965Z,11.90
2018-05-18T13:35:41.642Z,10.40
2018-05-18T13:38:09.297Z,10.93
2018-05-18T13:40:36.978Z,10.30
2018-05-18T13:43:04.623Z,9.80
2018-05-18T13:45:32.311Z,10.20
2018-05-18T13:48:00.755Z,10.70
2018-05-18T13:50:28.407Z,9.13
2018-05-18T13:52:56.075Z,10.90
2018-05-18T13:55:23.749Z,10.50
2018-05-18T13:57:51.384Z,8.97
2018-05-18T14:00:19.077Z,10.60
2018-05-18T14:02:46.749Z,10.33
2018-05-18T14:05:14.384Z,10.93
2018-05-18T14:07:42.050Z,10.20
2018-05-18T14:10:09.723Z,10.60
2018-05-18T14:12:38.128Z,9.80
2018-05-18T14:15:05.802Z,9.77
2018-05-18T14:17:33.463Z,9.57
2018-05-18T14:20:01.110Z,9.97
2018-05-18T14:22:28.841Z,10.80
2018-05-18T14:24:57.278Z,9.20
2018-05-18T14:27:24.941Z,10.47
2018-05-18T14:29:52.675Z,10.53
2018-05-18T14:32:20.354Z,11.13
2018-05-18T14:34:47.982Z,10.90
2018-05-18T14:37:15.653Z,10.00
2018-05-18T14:39:43.447Z,9.07
2018-05-18T14:42:11.259Z,10.07
2018-05-18T14:44:39.355Z,9.97
2018-05-18T14:47:12.043Z,10.63
2018-05-18T14:49:47.047Z,10.17
2018-05-18T14:52:19.765Z,10.90
2018-05-18T14:54:50.884Z,10.27
2018-05-18T14:57:18.694Z,7.80
2018-05-18T14:59:46.931Z,9.57
2018-05-18T15:02:15.703Z,11.33
2018-05-18T15:04:44.932Z,10.13
2018-05-18T15:07:12.765Z,10.47
2018-05-18T15:09:40.671Z,9.90
2018-05-18T15:12:08.605Z,9.07
2018-05-18T15:14:36.324Z,9.60
2018-05-18T15:17:04.966Z,9.83
2018-05-18T15:19:32.892Z,9.33
2018-05-18T15:22:01.738Z,8.83
2018-05-18T15:24:29.667Z,9.10
2018-05-18T15:26:57.490Z,10.30
2018-05-18T15:29:25.303Z,9.07
2018-05-18T15:31:53.171Z,8.30
2018-05-18T15:34:21.056Z,9.70
2018-05-18T15:36:48.868Z,8.57
2018-05-18T15:39:17.333Z,10.80
2018-05-18T15:41:45.792Z,9.80
2018-05-18T15:44:13.614Z,9.30
2018-05-18T15:46:41.537Z,8.67
2018-05-18T15:49:09.444Z,9.70
2018-05-18T15:51:37.208Z,9.77
2018-05-18T15:54:05.009Z,9.77
2018-05-18T15:56:32.965Z,9.00
2018-05-18T15:59:00.863Z,10.40
2018-05-18T16:01:29.515Z,8.70
2018-05-18T16:03:57.421Z,8.83
2018-05-18T16:06:26.067Z,9.00
2018-05-18T16:08:53.860Z,8.90
2018-05-18T16:11:21.604Z,9.13
2018-05-18T16:13:49.343Z,9.53
2018-05-18T16:16:17.152Z,7.80
2018-05-18T16:18:46.075Z,9.23
2018-05-18T16:21:13.935Z,9.60
2018-05-18T16:23:43.111Z,9.33
2018-05-18T16:26:11.645Z,8.83
2018-05-18T16:28:39.981Z,8.07
2018-05-18T16:31:07.822Z,10.80
2018-05-18T16:33:36.392Z,10.80
2018-05-18T16:36:04.096Z,10.03
2018-05-18T16:38:31.887Z,9.70
2018-05-18T16:40:59.579Z,9.57
2018-05-18T16:43:27.257Z,8.80
2018-05-18T16:45:54.949Z,8.37
2018-05-18T16:48:22.704Z,9.30
2018-05-18T16:50:50.464Z,8.80
2018-05-18T16:53:18.922Z,8.90
2018-05-18T16:55:47.406Z,8.67
2018-05-18T16:58:15.836Z,8.57
2018-05-18T17:00:43.600Z,9.23
2018-05-18T17:03:11.293Z,8.03
2018-05-18T17:05:39.791Z,8.53
2018-05-18T17:08:07.510Z,9.03
2018-05-18T17:10:35.218Z,8.13
2018-05-18T17:13:02.890Z,7.40
2018-05-18T17:15:30.682Z,8.50
2018-05-18T17:17:58.375Z,8.20
2018-05-18T17:20:26.034Z,9.23
2018-05-18T17:22:53.715Z,8.10
2018-05-18T17:25:22.175Z,8.83
2018-05-18T17:27:50.595Z,9.50
2018-05-18T17:30:18.294Z,8.63
2018-05-18T17:32:46.000Z,8.83
2018-05-18T17:35:13.707Z,8.30
2018-05-18T17:37:41.404Z,8.63
2018-05-18T17:40:09.213Z,9.40
2018-05-18T17:42:36.900Z,9.43
2018-05-18T17:45:04.655Z,8.40
2018-05-18T17:47:32.340Z,8.73
2018-05-18T17:50:00.045Z,9.20
2018-05-18T17:52:27.787Z,7.10
2018-05-18T17:54:55.487Z,7.33
2018-05-18T17:57:23.157Z,7.90
2018-05-18T17:59:50.868Z,7.50
2018-05-18T18:02:19.323Z,6.10
2018-05-18T18:04:46.969Z,5.90
2018-05-18T18:07:14.676Z,7.90
2018-05-18T18:09:43.176Z,7.77
2018-05-18T18:12:10.835Z,6.80
2018-05-18T18:14:38.527Z,7.37
2018-05-18T18:17:07.842Z,7.83
2018-05-18T18:19:35.490Z,8.03
2018-05-18T18:22:03.226Z,7.20
2018-05-18T18:24:30.940Z,7.73
2018-05-18T18:26:59.363Z,7.83
2018-05-18T18:29:27.025Z,7.20
2018-05-18T18:31:54.695Z,7.27
2018-05-18T18:34:22.340Z,7.40
2018-05-18T18:36:50.007Z,8.10
2018-05-18T18:39:17.662Z,8.00
2018-05-18T18:41:45.308Z,7.10
2018-05-18T18:44:12.984Z,9.53
2018-05-18T18:46:40.684Z,7.87
2018-05-18T18:49:08.334Z,7.57
2018-05-18T18:51:35.998Z,7.90
2018-05-18T18:54:03.709Z,8.60
2018-05-18T18:56:31.397Z,7.90
2018-05-18T18:58:59.093Z,7.40
2018-05-18T19:01:26.804Z,7.23
2018-05-18T19:03:54.457Z,7.67
2018-05-18T19:06:22.239Z,7.93
2018-05-18T19:08:50.712Z,8.00
2018-05-18T19:11:19.135Z,8.10
2018-05-18T19:13:46.813Z,9.00
2018-05-18T19:16:14.576Z,8.03
2018-05-18T19:18:43.047Z,9.20
2018-05-18T19:21:11.492Z,8.20
2018-05-18T19:23:39.233Z,9.00
2018-05-18T19:26:07.755Z,8.63
2018-05-18T19:28:35.787Z,8.67
2018-05-18T19:31:03.715Z,7.80
2018-05-18T19:33:31.470Z,8.97
2018-05-18T19:35:59.262Z,9.90
2018-05-18T19:38:27.012Z,9.30
2018-05-18T19:40:56.074Z,9.60
2018-05-18T19:43:23.923Z,9.27
2018-05-18T19:45:51.992Z,8.40
2018-05-18T19:48:19.843Z,8.73
2018-05-18T19:50:47.606Z,9.53
2018-05-18T19:53:15.559Z,8.93
2018-05-18T19:55:43.415Z,8.70
2018-05-18T19:58:11.205Z,9.57
2018-05-18T20:00:39.028Z,10.20
2018-05-18T20:03:06.915Z,10.47
2018-05-18T20:05:34.932Z,9.30
2018-05-18T20:08:02.724Z,9.73
2018-05-18T20:10:30.470Z,9.80
2018-05-18T20:12:58.899Z,9.70
2018-05-18T20:15:26.572Z,10.10
2018-05-18T20:17:54.224Z,11.43
2018-05-18T20:20:22.645Z,9.30
2018-05-18T20:22:51.260Z,10.30
2018-05-18T20:25:19.235Z,9.97
2018-05-18T20:27:47.170Z,10.27
2018-05-18T20:30:16.105Z,11.00
2018-05-18T20:32:44.755Z,10.93
2018-05-18T20:35:12.498Z,11.90
2018-05-18T20:37:40.339Z,11.87
2018-05-18T20:40:08.125Z,11.77
2018-05-18T20:42:36.710Z,11.03
2018-05-18T20:45:04.484Z,10.83
2018-05-18T20:47:32.306Z,12.20
2018-05-18T20:50:00.590Z,11.30
2018-05-18T20:52:28.399Z,11.57
2018-05-18T20:54:56.099Z,13.10
2018-05-18T20:57:24.502Z,12.37
2018-05-18T20:59:53.019Z,13.60
2018-05-18T21:02:20.926Z,13.80
2018-05-18T21:04:49.507Z,13.40
2018-05-18T21:07:17.582Z,14.00
2018-05-18T21:09:45.496Z,14.60
2018-05-18T21:12:13.423Z,14.03
2018-05-18T21:14:41.316Z,13.83
2018-05-18T21:17:09.982Z,14.03
2018-05-18T21:19:37.790Z,15.30
2018-05-18T21:22:05.462Z,13.47
2018-05-18T21:24:33.105Z,14.47
2018-05-18T21:27:00.782Z,15.13
2018-05-18T21:29:28.448Z,16.40
2018-05-18T21:31:56.070Z,16.37
2018-05-18T21:34:23.722Z,13.97
2018-05-18T21:36:52.161Z,16.20
2018-05-18T21:39:19.851Z,14.07
2018-05-18T21:41:48.283Z,13.90
2018-05-18T21:44:15.968Z,17.30
2018-05-18T21:46:43.612Z,16.50
2018-05-18T21:49:11.289Z,15.80
2018-05-18T21:51:38.960Z,18.17
2018-05-18T21:54:06.592Z,17.23
2018-05-18T21:56:34.253Z,18.10
2018-05-18T21:59:01.922Z,18.20
2018-05-18T22:01:29.583Z,20.60
2018-05-18T22:03:57.265Z,18.90
2018-05-18T22:06:24.922Z,19.73
2018-05-18T22:08:52.558Z,20.50
2018-05-18T22:11:20.271Z,19.47
2018-05-18T22:13:47.955Z,18.10
2018-05-18T22:16:15.590Z,20.23
2018-05-18T22:18:43.255Z,18.33
2018-05-18T22:21:10.950Z,20.30
2018-05-18T22:23:38.627Z,18.20
2018-05-18T22:26:06.291Z,18.80
2018-05-18T22:28:33.963Z,20.07
2018-05-18T22:31:01.584Z,18.50
2018-05-18T22:33:29.265Z,17.17
2018-05-18T22:35:57.027Z,17.83
2018-05-18T22:38:25.390Z,18.57
2018-05-18T22:40:53.063Z,18.07
2018-05-18T22:43:20.734Z,18.07
2018-05-18T22:45:48.381Z,17.27
2018-05-18T22:48:16.057Z,18.30
2018-05-18T22:50:43.725Z,18.13
2018-05-18T22:53:11.363Z,19.13
2018-05-18T22:55:39.033Z,18.43
2018-05-18T22:58:06.691Z,19.47
2018-05-18T23:00:34.330Z,17.23
2018-05-18T23:03:01.996Z,17.97
2018-05-18T23:05:29.664Z,17.90
2018-05-18T23:07:57.309Z,17.27
2018-05-18T23:10:24.973Z,16.00
2018-05-18T23:12:52.668Z,17.10
2018-05-18T23:15:20.308Z,18.10
2018-05-18T23:17:47.971Z,17.93
2018-05-18T23:20:15.636Z,15.20
2018-05-18T23:22:43.872Z,16.37
2018-05-18T23:25:11.543Z,15.63
2018-05-18T23:27:39.211Z,15.37
2018-05-18T23:30:06.839Z,16.50
2018-05-18T23:32:34.498Z,18.63
2018-05-18T23:35:02.164Z,16.37
2018-05-18T23:37:29.795Z,16.43
2018-05-18T23:39:57.460Z,16.43
2018-05-18T23:42:25.908Z,16.77
2018-05-18T23:44:53.579Z,15.93
2018-05-18T23:47:21.257Z,17.10
2018-05-18T23:49:49.681Z,16.30
2018-05-18T23:52:17.364Z,15.90
2018-05-18T23:54:45.042Z,16.20
2018-05-18T23:57:13.492Z,17.30
2018-05-18T23:59:41.114Z,15.13
